createdAt,value
2019-02-17T12:42:58.474Z,17.70
2019-02-17T12:47:02.099Z,18.17
2019-02-17T12:51:05.781Z,20.65
2019-02-17T12:55:09.424Z,21.40
2019-02-17T12:59:13.037Z,20.92
2019-02-17T13:03:16.605Z,20.55
2019-02-17T13:07:20.138Z,20.50
2019-02-17T13:11:23.698Z,21.48
2019-02-17T13:15:27.451Z,21.95
2019-02-17T13:19:31.102Z,21.85
2019-02-17T13:23:34.505Z,22.67
2019-02-17T13:27:38.087Z,21.30
2019-02-17T13:31:43.369Z,23.05
2019-02-17T13:35:47.084Z,22.32
2019-02-17T13:39:50.500Z,21.57
2019-02-17T13:43:53.889Z,22.93
2019-02-17T13:47:57.625Z,21.02
2019-02-17T13:52:01.136Z,20.55
2019-02-17T13:56:04.655Z,22.02
2019-02-17T14:00:20.921Z,22.95
2019-02-17T14:04:24.779Z,21.80
2019-02-17T14:08:28.597Z,21.15
2019-02-17T14:12:32.277Z,21.10
2019-02-17T14:16:35.824Z,21.68
2019-02-17T14:20:39.439Z,19.73
2019-02-17T14:24:42.819Z,21.40
2019-02-17T14:28:48.532Z,20.57
2019-02-17T14:32:51.970Z,19.95
2019-02-17T14:36:55.510Z,20.23
2019-02-17T14:41:00.051Z,18.87
2019-02-17T14:45:04.711Z,22.07
2019-02-17T14:49:10.146Z,24.27
2019-02-17T14:53:13.473Z,24.80
2019-02-17T14:57:17.084Z,24.52
2019-02-17T15:01:20.560Z,24.80
2019-02-17T15:05:24.375Z,27.30
2019-02-17T15:09:27.835Z,24.57
2019-02-17T15:13:31.399Z,25.77
2019-02-17T15:17:35.222Z,24.57
2019-02-17T15:21:38.769Z,25.57
2019-02-17T15:25:42.585Z,25.60
2019-02-17T15:29:47.081Z,25.23
2019-02-17T15:33:50.491Z,24.67
2019-02-17T15:37:54.248Z,24.67
2019-02-17T15:41:57.737Z,23.35
2019-02-17T15:46:01.272Z,26.10
2019-02-17T15:50:07.560Z,21.93
2019-02-17T15:54:12.081Z,24.74
2019-02-17T15:58:17.273Z,25.25
2019-02-17T16:02:20.681Z,23.47
2019-02-17T16:06:24.259Z,23.20
2019-02-17T16:10:27.763Z,22.87
2019-02-17T16:14:31.275Z,23.07
2019-02-17T16:18:34.683Z,24.27
2019-02-17T16:22:38.298Z,25.10
2019-02-17T16:26:41.707Z,24.35
2019-02-17T16:30:45.111Z,24.77
2019-02-17T16:34:48.627Z,24.40
2019-02-17T16:38:52.139Z,23.83
2019-02-17T16:42:55.650Z,24.10
2019-02-17T16:46:59.161Z,23.83
2019-02-17T16:51:02.673Z,23.27
2019-02-17T16:55:09.569Z,22.00
2019-02-17T16:59:13.140Z,22.25
2019-02-17T17:03:16.755Z,23.45
2019-02-17T17:07:20.369Z,23.67
2019-02-17T17:11:23.915Z,22.77
2019-02-17T17:15:28.718Z,21.42
2019-02-17T17:19:32.372Z,23.02
2019-02-17T17:23:35.986Z,21.42
2019-02-17T17:27:41.296Z,20.23
2019-02-17T17:31:45.718Z,20.55
2019-02-17T17:35:49.494Z,20.85
2019-02-17T17:39:53.000Z,20.80
2019-02-17T17:43:56.512Z,20.48
2019-02-17T17:48:00.888Z,19.95
2019-02-17T17:52:04.561Z,20.48
2019-02-17T17:56:08.043Z,21.33
2019-02-17T18:00:16.011Z,20.35
2019-02-17T18:04:19.598Z,25.72
2019-02-17T18:08:23.167Z,22.87
2019-02-17T18:12:26.791Z,25.77
2019-02-17T18:16:30.288Z,24.57
2019-02-17T18:20:33.849Z,24.40
2019-02-17T18:24:37.336Z,24.07
2019-02-17T18:28:40.935Z,24.87
2019-02-17T18:32:44.450Z,24.75
2019-02-17T18:36:48.307Z,23.65
2019-02-17T18:40:51.815Z,25.68
2019-02-17T18:44:55.439Z,22.62
2019-02-17T18:48:58.903Z,25.20
2019-02-17T18:53:02.554Z,26.23
2019-02-17T18:57:08.533Z,26.73
2019-02-17T19:01:11.729Z,15.18
2019-02-17T19:05:15.238Z,16.40
2019-02-17T19:09:18.852Z,19.87
2019-02-17T19:13:22.468Z,19.35
2019-02-17T19:17:26.080Z,19.35
2019-02-17T19:21:30.001Z,18.73
2019-02-17T19:25:33.795Z,19.27
2019-02-17T19:29:37.721Z,20.43
2019-02-17T19:33:41.640Z,17.92
2019-02-17T19:37:45.490Z,18.02
2019-02-17T19:41:48.906Z,19.27
2019-02-17T19:45:52.354Z,22.65
2019-02-17T19:49:56.909Z,21.62
2019-02-17T19:54:00.542Z,16.20
2019-02-17T19:58:04.405Z,20.07
2019-02-17T20:02:08.515Z,22.48
2019-02-17T20:06:13.813Z,20.52
2019-02-17T20:10:17.263Z,14.20
2019-02-17T20:14:20.878Z,16.27
2019-02-17T20:18:25.870Z,18.10
2019-02-17T20:22:29.736Z,21.15
2019-02-17T20:26:33.582Z,17.80
2019-02-17T20:30:37.395Z,15.30
2019-02-17T20:34:41.193Z,17.55
2019-02-17T20:38:44.704Z,16.37
2019-02-17T20:42:48.319Z,21.45
2019-02-17T20:46:51.987Z,25.80
2019-02-17T20:50:55.493Z,30.77
2019-02-17T20:54:59.157Z,32.95
2019-02-17T20:59:02.769Z,33.53
2019-02-17T21:03:06.338Z,32.55
2019-02-17T21:07:09.962Z,34.65
2019-02-17T21:11:13.513Z,35.45
2019-02-17T21:15:18.761Z,33.10
2019-02-17T21:19:22.236Z,33.23
2019-02-17T21:23:25.787Z,31.02
2019-02-17T21:27:29.322Z,28.80
2019-02-17T21:31:33.247Z,30.80
2019-02-17T21:35:36.647Z,31.27
2019-02-17T21:39:40.103Z,23.35
2019-02-17T21:43:43.534Z,28.55
2019-02-17T21:47:47.025Z,28.98
2019-02-17T21:51:50.810Z,24.87
2019-02-17T21:55:54.233Z,29.92
2019-02-17T21:59:57.727Z,29.67
2019-02-17T22:04:01.169Z,29.95
2019-02-17T22:08:04.584Z,23.25
2019-02-17T22:12:08.322Z,28.23
2019-02-17T22:16:11.957Z,21.75
2019-02-17T22:20:15.456Z,24.00
2019-02-17T22:24:18.904Z,28.17
2019-02-17T22:28:22.418Z,27.85
2019-02-17T22:32:26.127Z,29.32
2019-02-17T22:36:29.877Z,26.82
2019-02-17T22:40:33.524Z,26.62
2019-02-17T22:44:37.112Z,21.95
2019-02-17T22:48:40.752Z,19.17
2019-02-17T22:52:46.099Z,19.95
2019-02-17T22:56:50.028Z,21.10
2019-02-17T23:01:03.377Z,21.98
2019-02-17T23:05:07.248Z,22.75
2019-02-17T23:09:10.789Z,25.70
2019-02-17T23:13:14.210Z,19.40
2019-02-17T23:17:17.674Z,18.42
2019-02-17T23:21:22.998Z,22.10
2019-02-17T23:25:27.865Z,21.57
2019-02-17T23:29:31.734Z,22.75
2019-02-17T23:33:35.240Z,19.87
2019-02-17T23:37:38.878Z,24.10
2019-02-17T23:41:43.240Z,27.52
2019-02-17T23:45:46.923Z,29.25
2019-02-17T23:49:50.901Z,29.63
2019-02-17T23:53:54.485Z,28.67
2019-02-17T23:57:58.031Z,29.25
